sensor_id;sensor_type;location;lat;lon;timestamp;pressure;altitude;pressure_sealevel;temperature;humidity
82033;BME280;71595;52.180;4.512;2023-10-19T00:02:08;99259.19;;;11.04;91.68
82033;BME280;71595;52.180;4.512;2023-10-19T00:04:36;99252.88;;;11.03;91.81
82033;BME280;71595;52.180;4.512;2023-10-19T00:07:02;99248.94;;;11.08;91.62
82033;BME280;71595;52.180;4.512;2023-10-19T00:09:30;99260.00;;;11.08;91.89
82033;BME280;71595;52.180;4.512;2023-10-19T00:12:06;99255.28;;;11.08;91.76
82033;BME280;71595;52.180;4.512;2023-10-19T00:14:34;99256.09;;;11.12;92.00
82033;BME280;71595;52.180;4.512;2023-10-19T00:17:00;99251.38;;;11.13;91.93
82033;BME280;71595;52.180;4.512;2023-10-19T00:19:30;99249.78;;;11.15;91.63
82033;BME280;71595;52.180;4.512;2023-10-19T00:21:56;99236.41;;;11.18;91.98
82033;BME280;71595;52.180;4.512;2023-10-19T00:24:27;99245.50;;;11.18;91.65
82033;BME280;71595;52.180;4.512;2023-10-19T00:26:53;99239.19;;;11.21;92.31
82033;BME280;71595;52.180;4.512;2023-10-19T00:29:20;99243.56;;;11.22;92.38
82033;BME280;71595;52.180;4.512;2023-10-19T00:32:06;99237.28;;;11.25;92.06
82033;BME280;71595;52.180;4.512;2023-10-19T00:34:39;99243.97;;;11.24;92.09
82033;BME280;71595;52.180;4.512;2023-10-19T00:37:04;99236.50;;;11.28;92.42
82033;BME280;71595;52.180;4.512;2023-10-19T00:39:34;99234.13;;;11.30;92.11
82033;BME280;71595;52.180;4.512;2023-10-19T00:42:08;99230.59;;;11.33;92.47
82033;BME280;71595;52.180;4.512;2023-10-19T00:44:34;99237.72;;;11.35;92.51
82033;BME280;71595;52.180;4.512;2023-10-19T00:47:14;99232.59;;;11.37;92.51
82033;BME280;71595;52.180;4.512;2023-10-19T00:49:45;99229.47;;;11.38;92.64
82033;BME280;71595;52.180;4.512;2023-10-19T00:52:10;99223.16;;;11.41;92.50
82033;BME280;71595;52.180;4.512;2023-10-19T00:54:46;99226.31;;;11.43;92.17
82033;BME280;71595;52.180;4.512;2023-10-19T00:57:15;99222.38;;;11.44;92.43
82033;BME280;71595;52.180;4.512;2023-10-19T00:59:45;99219.25;;;11.46;92.41
82033;BME280;71595;52.180;4.512;2023-10-19T01:02:10;99224.00;;;11.49;92.97
82033;BME280;71595;52.180;4.512;2023-10-19T01:04:52;99222.06;;;11.53;92.50
82033;BME280;71595;52.180;4.512;2023-10-19T01:07:28;99214.16;;;11.55;93.23
82033;BME280;71595;52.180;4.512;2023-10-19T01:09:59;99211.41;;;11.59;92.62
82033;BME280;71595;52.180;4.512;2023-10-19T01:12:26;99220.91;;;11.61;92.55
82033;BME280;71595;52.180;4.512;2023-10-19T01:15:05;99221.31;;;11.63;92.85
82033;BME280;71595;52.180;4.512;2023-10-19T01:17:44;99233.19;;;11.67;93.01
82033;BME280;71595;52.180;4.512;2023-10-19T01:20:10;99233.59;;;11.69;93.14
82033;BME280;71595;52.180;4.512;2023-10-19T01:22:56;99237.19;;;11.74;92.84
82033;BME280;71595;52.180;4.512;2023-10-19T01:28:26;99238.41;;;11.80;92.97
82033;BME280;71595;52.180;4.512;2023-10-19T01:31:22;99232.09;;;11.83;93.21
82033;BME280;71595;52.180;4.512;2023-10-19T01:33:57;99234.09;;;11.86;93.09
82033;BME280;71595;52.180;4.512;2023-10-19T01:36:26;99228.56;;;11.86;93.55
82033;BME280;71595;52.180;4.512;2023-10-19T01:38:53;99226.19;;;11.88;93.83
82033;BME280;71595;52.180;4.512;2023-10-19T01:41:20;99229.44;;;11.97;93.71
82033;BME280;71595;52.180;4.512;2023-10-19T01:43:48;99230.66;;;12.03;94.17
82033;BME280;71595;52.180;4.512;2023-10-19T01:46:15;99224.34;;;12.07;93.82
82033;BME280;71595;52.180;4.512;2023-10-19T01:48:52;99220.78;;;12.06;93.79
82033;BME280;71595;52.180;4.512;2023-10-19T01:51:22;99216.81;;;12.07;93.42
82033;BME280;71595;52.180;4.512;2023-10-19T01:53:52;99208.53;;;12.07;93.73
82033;BME280;71595;52.180;4.512;2023-10-19T01:56:18;99215.66;;;12.08;93.62
82033;BME280;71595;52.180;4.512;2023-10-19T01:58:46;99216.44;;;12.09;93.97
82033;BME280;71595;52.180;4.512;2023-10-19T02:01:18;99206.19;;;12.09;93.74
82033;BME280;71595;52.180;4.512;2023-10-19T02:03:53;99210.13;;;12.12;93.61
82033;BME280;71595;52.180;4.512;2023-10-19T02:06:20;99208.56;;;12.14;93.49
82033;BME280;71595;52.180;4.512;2023-10-19T02:08:48;99206.97;;;12.17;93.98
82033;BME280;71595;52.180;4.512;2023-10-19T02:11:21;99207.38;;;12.19;93.63
82033;BME280;71595;52.180;4.512;2023-10-19T02:13:48;99207.78;;;12.25;93.67
82033;BME280;71595;52.180;4.512;2023-10-19T02:16:22;99207.81;;;12.28;94.07
82033;BME280;71595;52.180;4.512;2023-10-19T02:18:50;99213.34;;;12.28;93.87
82033;BME280;71595;52.180;4.512;2023-10-19T02:21:16;99201.09;;;12.29;93.58
82033;BME280;71595;52.180;4.512;2023-10-19T02:23:50;99208.22;;;12.34;94.11
82033;BME280;71595;52.180;4.512;2023-10-19T02:26:20;99203.09;;;12.39;93.94
82033;BME280;71595;52.180;4.512;2023-10-19T02:28:48;99204.31;;;12.42;94.22
82033;BME280;71595;52.180;4.512;2023-10-19T02:31:16;99203.09;;;12.43;94.03
82033;BME280;71595;52.180;4.512;2023-10-19T02:33:44;99202.72;;;12.48;94.36
82033;BME280;71595;52.180;4.512;2023-10-19T02:36:30;99198.38;;;12.51;93.98
82033;BME280;71595;52.180;4.512;2023-10-19T02:38:57;99188.88;;;12.55;94.41
82033;BME280;71595;52.180;4.512;2023-10-19T02:41:25;99188.91;;;12.59;94.38
82033;BME280;71595;52.180;4.512;2023-10-19T02:43:52;99188.13;;;12.62;94.45
82033;BME280;71595;52.180;4.512;2023-10-19T02:46:35;99191.28;;;12.64;94.42
82033;BME280;71595;52.180;4.512;2023-10-19T02:49:05;99193.28;;;12.64;94.58
82033;BME280;71595;52.180;4.512;2023-10-19T02:51:35;99186.13;;;12.66;94.15
82033;BME280;71595;52.180;4.512;2023-10-19T02:54:02;99179.41;;;12.67;94.21
82033;BME280;71595;52.180;4.512;2023-10-19T02:56:32;99182.56;;;12.69;94.62
82033;BME280;71595;52.180;4.512;2023-10-19T02:59:00;99175.44;;;12.68;94.23
82033;BME280;71595;52.180;4.512;2023-10-19T03:01:30;99171.91;;;12.75;94.83
82033;BME280;71595;52.180;4.512;2023-10-19T03:03:58;99174.66;;;12.79;94.37
82033;BME280;71595;52.180;4.512;2023-10-19T03:06:28;99174.69;;;12.86;94.71
82033;BME280;71595;52.180;4.512;2023-10-19T03:09:08;99173.91;;;12.89;94.42
82033;BME280;71595;52.180;4.512;2023-10-19T03:11:54;99177.03;;;12.94;94.47
82033;BME280;71595;52.180;4.512;2023-10-19T03:14:22;99175.06;;;13.02;94.59
82033;BME280;71595;52.180;4.512;2023-10-19T03:16:53;99179.81;;;13.05;94.61
82033;BME280;71595;52.180;4.512;2023-10-19T03:19:21;99177.84;;;13.09;94.48
82033;BME280;71595;52.180;4.512;2023-10-19T03:21:46;99175.06;;;13.13;94.42
82033;BME280;71595;52.180;4.512;2023-10-19T03:24:16;99176.25;;;13.19;94.36
82033;BME280;71595;52.180;4.512;2023-10-19T03:27:01;99175.47;;;13.19;94.34
82033;BME280;71595;52.180;4.512;2023-10-19T03:29:27;99169.94;;;13.15;94.20
82033;BME280;71595;52.180;4.512;2023-10-19T03:32:06;99170.31;;;13.13;94.04
82033;BME280;71595;52.180;4.512;2023-10-19T03:34:32;99162.78;;;13.14;93.88
82033;BME280;71595;52.180;4.512;2023-10-19T03:36:58;99163.97;;;13.09;93.81
82033;BME280;71595;52.180;4.512;2023-10-19T03:39:33;99167.16;;;13.08;93.79
82033;BME280;71595;52.180;4.512;2023-10-19T03:41:59;99173.88;;;13.03;93.66
82033;BME280;71595;52.180;4.512;2023-10-19T03:44:26;99177.03;;;13.05;93.51
82033;BME280;71595;52.180;4.512;2023-10-19T03:46:51;99157.25;;;13.03;93.33
82033;BME280;71595;52.180;4.512;2023-10-19T03:49:26;99164.78;;;12.99;93.18
82033;BME280;71595;52.180;4.512;2023-10-19T03:51:58;99165.97;;;12.98;93.18
82033;BME280;71595;52.180;4.512;2023-10-19T03:54:26;99170.72;;;12.98;93.20
82033;BME280;71595;52.180;4.512;2023-10-19T03:56:53;99168.34;;;12.96;93.04
82033;BME280;71595;52.180;4.512;2023-10-19T03:59:25;99172.69;;;12.97;92.98
82033;BME280;71595;52.180;4.512;2023-10-19T04:01:55;99168.34;;;13.00;92.95
82033;BME280;71595;52.180;4.512;2023-10-19T04:04:20;99168.34;;;13.00;92.80
82033;BME280;71595;52.180;4.512;2023-10-19T04:06:46;99156.88;;;13.01;92.67
82033;BME280;71595;52.180;4.512;2023-10-19T04:09:14;99160.03;;;13.03;92.96
82033;BME280;71595;52.180;4.512;2023-10-19T04:11:42;99168.34;;;13.03;93.01
82033;BME280;71595;52.180;4.512;2023-10-19T04:14:15;99169.13;;;13.00;92.95
82033;BME280;71595;52.180;4.512;2023-10-19T04:16:41;99167.56;;;13.03;92.55
82033;BME280;71595;52.180;4.512;2023-10-19T04:19:11;99171.50;;;13.02;92.31
82033;BME280;71595;52.180;4.512;2023-10-19T04:21:37;99166.38;;;13.00;92.22
82033;BME280;71595;52.180;4.512;2023-10-19T04:24:07;99170.31;;;13.06;92.35
82033;BME280;71595;52.180;4.512;2023-10-19T04:26:36;99172.31;;;13.06;92.02
82033;BME280;71595;52.180;4.512;2023-10-19T04:29:03;99165.56;;;13.03;92.35
82033;BME280;71595;52.180;4.512;2023-10-19T04:31:38;99164.38;;;13.01;92.18
82033;BME280;71595;52.180;4.512;2023-10-19T04:34:15;99168.34;;;13.03;92.00
82033;BME280;71595;52.180;4.512;2023-10-19T04:36:41;99160.41;;;13.05;92.11
82033;BME280;71595;52.180;4.512;2023-10-19T04:39:08;99158.03;;;13.04;92.19
82033;BME280;71595;52.180;4.512;2023-10-19T04:41:37;99157.25;;;13.03;92.14
82033;BME280;71595;52.180;4.512;2023-10-19T04:44:02;99166.34;;;13.04;92.14
82033;BME280;71595;52.180;4.512;2023-10-19T04:46:28;99173.88;;;13.03;92.19
82033;BME280;71595;52.180;4.512;2023-10-19T04:48:54;99171.50;;;13.05;92.10
82033;BME280;71595;52.180;4.512;2023-10-19T04:51:20;99168.31;;;13.07;91.80
82033;BME280;71595;52.180;4.512;2023-10-19T04:53:46;99165.56;;;13.07;92.04
82033;BME280;71595;52.180;4.512;2023-10-19T04:56:11;99164.38;;;13.08;92.10
82033;BME280;71595;52.180;4.512;2023-10-19T04:58:38;99166.75;;;13.09;91.98
82033;BME280;71595;52.180;4.512;2023-10-19T05:01:03;99163.97;;;13.09;91.86
82033;BME280;71595;52.180;4.512;2023-10-19T05:03:30;99166.75;;;13.13;91.93
82033;BME280;71595;52.180;4.512;2023-10-19T05:05:55;99168.34;;;13.10;91.74
82033;BME280;71595;52.180;4.512;2023-10-19T05:08:24;99169.13;;;13.11;91.68
82033;BME280;71595;52.180;4.512;2023-10-19T05:10:54;99180.22;;;13.11;91.58
82033;BME280;71595;52.180;4.512;2023-10-19T05:13:21;99179.03;;;13.16;91.49
82033;BME280;71595;52.180;4.512;2023-10-19T05:15:46;99181.41;;;13.13;91.07
82033;BME280;71595;52.180;4.512;2023-10-19T05:18:12;99185.75;;;13.15;91.28
82033;BME280;71595;52.180;4.512;2023-10-19T05:27:22;99191.28;;;13.15;91.11
82033;BME280;71595;52.180;4.512;2023-10-19T05:29:48;99179.03;;;13.16;90.87
82033;BME280;71595;52.180;4.512;2023-10-19T05:32:14;99178.25;;;13.15;90.96
82033;BME280;71595;52.180;4.512;2023-10-19T05:34:39;99181.41;;;13.17;90.86
82033;BME280;71595;52.180;4.512;2023-10-19T05:37:05;99190.09;;;13.19;90.73
82033;BME280;71595;52.180;4.512;2023-10-19T05:39:31;99182.19;;;13.18;90.78
82033;BME280;71595;52.180;4.512;2023-10-19T05:41:57;99173.88;;;13.18;90.80
82033;BME280;71595;52.180;4.512;2023-10-19T05:44:26;99173.09;;;13.17;91.05
82033;BME280;71595;52.180;4.512;2023-10-19T05:46:51;99184.56;;;13.16;91.01
82033;BME280;71595;52.180;4.512;2023-10-19T05:49:17;99177.41;;;13.18;90.91
82033;BME280;71595;52.180;4.512;2023-10-19T05:51:43;99186.53;;;13.19;90.76
82033;BME280;71595;52.180;4.512;2023-10-19T05:54:10;99179.41;;;13.18;90.65
82033;BME280;71595;52.180;4.512;2023-10-19T05:56:35;99189.31;;;13.19;90.87
82033;BME280;71595;52.180;4.512;2023-10-19T05:59:00;99176.22;;;13.23;90.75
82033;BME280;71595;52.180;4.512;2023-10-19T06:01:27;99173.47;;;13.19;90.87
82033;BME280;71595;52.180;4.512;2023-10-19T06:03:52;99179.41;;;13.18;90.87
82033;BME280;71595;52.180;4.512;2023-10-19T06:06:21;99183.38;;;13.17;91.08
82033;BME280;71595;52.180;4.512;2023-10-19T06:08:47;99185.75;;;13.15;91.05
82033;BME280;71595;52.180;4.512;2023-10-19T06:11:12;99196.84;;;13.15;91.21
82033;BME280;71595;52.180;4.512;2023-10-19T06:13:38;99192.88;;;13.12;91.02
82033;BME280;71595;52.180;4.512;2023-10-19T06:16:04;99195.25;;;13.13;91.17
82033;BME280;71595;52.180;4.512;2023-10-19T06:18:29;99197.63;;;13.15;91.30
82033;BME280;71595;52.180;4.512;2023-10-19T06:20:55;99204.75;;;13.12;91.10
82033;BME280;71595;52.180;4.512;2023-10-19T06:23:21;99199.22;;;13.16;91.36
82033;BME280;71595;52.180;4.512;2023-10-19T06:25:47;99215.44;;;13.18;91.31
82033;BME280;71595;52.180;4.512;2023-10-19T06:28:13;99202.78;;;13.17;91.33
82033;BME280;71595;52.180;4.512;2023-10-19T06:30:39;99200.41;;;13.19;91.17
82033;BME280;71595;52.180;4.512;2023-10-19T06:33:06;99211.09;;;13.20;91.30
82033;BME280;71595;52.180;4.512;2023-10-19T06:35:37;99206.34;;;13.21;91.04
82033;BME280;71595;52.180;4.512;2023-10-19T06:38:03;99212.69;;;13.25;91.13
82033;BME280;71595;52.180;4.512;2023-10-19T06:40:29;99215.03;;;13.30;91.08
82033;BME280;71595;52.180;4.512;2023-10-19T06:42:57;99216.63;;;13.31;91.21
82033;BME280;71595;52.180;4.512;2023-10-19T06:45:23;99222.59;;;13.33;90.75
82033;BME280;71595;52.180;4.512;2023-10-19T06:47:49;99223.75;;;13.32;91.17
82033;BME280;71595;52.180;4.512;2023-10-19T06:50:17;99229.28;;;13.32;91.40
82033;BME280;71595;52.180;4.512;2023-10-19T06:52:44;99230.50;;;13.38;91.22
82033;BME280;71595;52.180;4.512;2023-10-19T06:55:10;99223.38;;;13.37;91.33
82033;BME280;71595;52.180;4.512;2023-10-19T06:57:44;99222.56;;;13.37;91.09
82033;BME280;71595;52.180;4.512;2023-10-19T07:00:12;99231.69;;;13.41;91.50
82033;BME280;71595;52.180;4.512;2023-10-19T07:02:48;99233.28;;;13.42;91.51
82033;BME280;71595;52.180;4.512;2023-10-19T07:05:14;99216.63;;;13.45;91.39
82033;BME280;71595;52.180;4.512;2023-10-19T07:07:44;99233.28;;;13.45;91.08
82033;BME280;71595;52.180;4.512;2023-10-19T07:10:11;99222.19;;;13.45;91.31
82033;BME280;71595;52.180;4.512;2023-10-19T07:12:45;99230.50;;;13.45;91.17
82033;BME280;71595;52.180;4.512;2023-10-19T07:15:12;99232.09;;;13.46;91.05
82033;BME280;71595;52.180;4.512;2023-10-19T07:17:41;99234.88;;;13.46;91.22
82033;BME280;71595;52.180;4.512;2023-10-19T07:20:07;99245.97;;;13.46;91.23
82033;BME280;71595;52.180;4.512;2023-10-19T07:22:35;99243.19;;;13.46;91.38
82033;BME280;71595;52.180;4.512;2023-10-19T07:25:05;99238.03;;;13.48;91.33
82033;BME280;71595;52.180;4.512;2023-10-19T07:27:32;99243.19;;;13.50;91.14
82033;BME280;71595;52.180;4.512;2023-10-19T07:29:59;99240.78;;;13.52;91.27
82033;BME280;71595;52.180;4.512;2023-10-19T07:32:24;99249.13;;;13.56;91.27
82033;BME280;71595;52.180;4.512;2023-10-19T07:34:49;99243.56;;;13.59;91.07
82033;BME280;71595;52.180;4.512;2023-10-19T07:37:15;99242.78;;;13.59;91.36
82033;BME280;71595;52.180;4.512;2023-10-19T07:39:49;99241.97;;;13.62;91.08
82033;BME280;71595;52.180;4.512;2023-10-19T07:42:17;99246.72;;;13.61;90.96
82033;BME280;71595;52.180;4.512;2023-10-19T07:44:43;99240.75;;;13.63;90.90
82033;BME280;71595;52.180;4.512;2023-10-19T07:47:12;99251.06;;;13.66;91.11
82033;BME280;71595;52.180;4.512;2023-10-19T07:49:37;99249.88;;;13.67;90.92
82033;BME280;71595;52.180;4.512;2023-10-19T07:52:06;99254.25;;;13.68;90.87
82033;BME280;71595;52.180;4.512;2023-10-19T07:54:35;99267.69;;;13.70;90.87
82033;BME280;71595;52.180;4.512;2023-10-19T07:57:01;99261.75;;;13.71;90.88
82033;BME280;71595;52.180;4.512;2023-10-19T07:59:45;99268.88;;;13.72;90.80
82033;BME280;71595;52.180;4.512;2023-10-19T08:02:12;99256.59;;;13.73;90.80
82033;BME280;71595;52.180;4.512;2023-10-19T08:04:38;99253.03;;;13.76;90.81
82033;BME280;71595;52.180;4.512;2023-10-19T08:07:04;99254.19;;;13.79;90.86
82033;BME280;71595;52.180;4.512;2023-10-19T08:09:29;99245.88;;;13.79;90.89
82033;BME280;71595;52.180;4.512;2023-10-19T08:12:00;99245.47;;;13.80;91.10
82033;BME280;71595;52.180;4.512;2023-10-19T08:14:26;99245.09;;;13.82;90.96
82033;BME280;71595;52.180;4.512;2023-10-19T08:16:55;99243.50;;;13.84;90.90
82033;BME280;71595;52.180;4.512;2023-10-19T08:19:21;99247.47;;;13.87;91.04
82033;BME280;71595;52.180;4.512;2023-10-19T08:21:47;99250.63;;;13.89;91.03
82033;BME280;71595;52.180;4.512;2023-10-19T08:24:12;99249.03;;;13.92;90.95
82033;BME280;71595;52.180;4.512;2023-10-19T08:26:43;99253.38;;;13.93;90.93
82033;BME280;71595;52.180;4.512;2023-10-19T08:29:08;99245.06;;;13.93;90.72
82033;BME280;71595;52.180;4.512;2023-10-19T08:31:43;99251.41;;;13.97;90.93
82033;BME280;71595;52.180;4.512;2023-10-19T08:34:11;99249.00;;;13.99;90.96
82033;BME280;71595;52.180;4.512;2023-10-19T08:36:37;99243.84;;;14.01;90.80
82033;BME280;71595;52.180;4.512;2023-10-19T08:39:07;99240.69;;;14.02;91.00
82033;BME280;71595;52.180;4.512;2023-10-19T08:41:34;99255.72;;;14.05;90.94
82033;BME280;71595;52.180;4.512;2023-10-19T08:44:01;99252.94;;;14.05;90.52
82033;BME280;71595;52.180;4.512;2023-10-19T08:46:27;99245.03;;;14.07;90.73
82033;BME280;71595;52.180;4.512;2023-10-19T08:48:55;99248.19;;;14.09;90.62
82033;BME280;71595;52.180;4.512;2023-10-19T08:51:22;99243.41;;;14.10;90.70
82033;BME280;71595;52.180;4.512;2023-10-19T08:53:48;99247.38;;;14.12;90.54
82033;BME280;71595;52.180;4.512;2023-10-19T08:56:15;99233.88;;;14.14;90.91
82033;BME280;71595;52.180;4.512;2023-10-19T08:58:41;99233.06;;;14.17;90.74
82033;BME280;71595;52.180;4.512;2023-10-19T09:01:06;99235.03;;;14.20;90.83
82033;BME280;71595;52.180;4.512;2023-10-19T09:03:32;99240.56;;;14.24;90.61
82033;BME280;71595;52.180;4.512;2023-10-19T09:06:04;99238.56;;;14.32;90.59
82033;BME280;71595;52.180;4.512;2023-10-19T09:08:31;99236.16;;;14.37;90.57
82033;BME280;71595;52.180;4.512;2023-10-19T09:11:10;99230.56;;;14.41;90.51
82033;BME280;71595;52.180;4.512;2023-10-19T09:13:52;99236.13;;;14.45;90.45
82033;BME280;71595;52.180;4.512;2023-10-19T09:16:19;99229.78;;;14.48;90.51
82033;BME280;71595;52.180;4.512;2023-10-19T09:18:51;99228.94;;;14.54;90.50
82033;BME280;71595;52.180;4.512;2023-10-19T09:21:20;99224.56;;;14.57;90.46
82033;BME280;71595;52.180;4.512;2023-10-19T09:23:49;99232.09;;;14.64;90.49
82033;BME280;71595;52.180;4.512;2023-10-19T09:26:15;99234.44;;;14.65;90.68
82033;BME280;71595;52.180;4.512;2023-10-19T09:28:41;99227.31;;;14.68;90.58
82033;BME280;71595;52.180;4.512;2023-10-19T09:31:07;99219.72;;;14.72;90.88
82033;BME280;71595;52.180;4.512;2023-10-19T09:33:36;99215.34;;;14.74;90.61
82033;BME280;71595;52.180;4.512;2023-10-19T09:36:04;99222.47;;;14.79;90.82
82033;BME280;71595;52.180;4.512;2023-10-19T09:38:31;99216.09;;;14.82;90.65
82033;BME280;71595;52.180;4.512;2023-10-19T09:40:58;99208.13;;;14.84;90.40
82033;BME280;71595;52.180;4.512;2023-10-19T09:43:37;99196.16;;;14.91;90.44
82033;BME280;71595;52.180;4.512;2023-10-19T09:46:29;99208.81;;;14.96;90.07
82033;BME280;71595;52.180;4.512;2023-10-19T09:48:56;99202.47;;;14.95;90.32
82033;BME280;71595;52.180;4.512;2023-10-19T09:51:22;99204.47;;;14.95;89.99
82033;BME280;71595;52.180;4.512;2023-10-19T09:53:53;99209.63;;;14.96;89.83
82033;BME280;71595;52.180;4.512;2023-10-19T09:56:36;99194.50;;;14.97;89.62
82033;BME280;71595;52.180;4.512;2023-10-19T09:59:32;99201.66;;;14.98;89.61
82033;BME280;71595;52.180;4.512;2023-10-19T10:02:08;99196.88;;;14.99;89.74
82033;BME280;71595;52.180;4.512;2023-10-19T10:04:36;99205.63;;;15.01;89.58
82033;BME280;71595;52.180;4.512;2023-10-19T10:07:01;99202.84;;;15.01;89.70
82033;BME280;71595;52.180;4.512;2023-10-19T10:09:29;99204.03;;;15.00;89.32
82033;BME280;71595;52.180;4.512;2023-10-19T10:11:55;99219.94;;;14.99;89.88
82033;BME280;71595;52.180;4.512;2023-10-19T10:14:27;99213.56;;;14.99;89.56
82033;BME280;71595;52.180;4.512;2023-10-19T10:17:03;99212.38;;;15.00;89.85
82033;BME280;71595;52.180;4.512;2023-10-19T10:19:30;99207.19;;;15.02;89.50
82033;BME280;71595;52.180;4.512;2023-10-19T10:22:10;99215.94;;;15.00;89.49
82033;BME280;71595;52.180;4.512;2023-10-19T10:24:43;99213.56;;;14.99;89.74
82033;BME280;71595;52.180;4.512;2023-10-19T10:27:09;99221.13;;;14.98;89.78
82033;BME280;71595;52.180;4.512;2023-10-19T10:29:35;99214.78;;;14.98;89.41
82033;BME280;71595;52.180;4.512;2023-10-19T10:32:02;99195.31;;;14.98;89.41
82033;BME280;71595;52.180;4.512;2023-10-19T10:37:06;99178.56;;;15.05;89.36
82033;BME280;71595;52.180;4.512;2023-10-19T10:39:34;99179.34;;;15.09;89.42
82033;BME280;71595;52.180;4.512;2023-10-19T10:42:05;99201.94;;;15.15;89.43
82033;BME280;71595;52.180;4.512;2023-10-19T10:44:44;99216.97;;;15.21;89.37
82033;BME280;71595;52.180;4.512;2023-10-19T10:47:16;99212.13;;;15.28;89.62
82033;BME280;71595;52.180;4.512;2023-10-19T10:49:51;99202.06;;;15.42;88.97
82033;BME280;71595;52.180;4.512;2023-10-19T10:55:08;99199.44;;;15.66;88.33
82033;BME280;71595;52.180;4.512;2023-10-19T10:57:37;99202.16;;;15.73;88.28
82033;BME280;71595;52.180;4.512;2023-10-19T11:00:12;99196.19;;;15.74;88.21
82033;BME280;71595;52.180;4.512;2023-10-19T11:02:41;99188.59;;;15.75;88.08
82033;BME280;71595;52.180;4.512;2023-10-19T11:05:16;99187.06;;;15.74;88.25
82033;BME280;71595;52.180;4.512;2023-10-19T11:10:32;99185.81;;;15.75;87.92
82033;BME280;71595;52.180;4.512;2023-10-19T11:15:27;99169.13;;;15.78;87.47
82033;BME280;71595;52.180;4.512;2023-10-19T11:17:52;99175.06;;;15.80;87.56
82033;BME280;71595;52.180;4.512;2023-10-19T11:20:22;99186.06;;;15.91;87.42
82033;BME280;71595;52.180;4.512;2023-10-19T11:22:52;99183.59;;;16.01;87.32
82033;BME280;71595;52.180;4.512;2023-10-19T11:25:22;99187.75;;;16.16;86.81
82033;BME280;71595;52.180;4.512;2023-10-19T11:27:48;99176.06;;;16.28;86.65
82033;BME280;71595;52.180;4.512;2023-10-19T11:30:23;99182.00;;;16.30;86.60
82033;BME280;71595;52.180;4.512;2023-10-19T11:32:48;99173.16;;;16.35;86.29
82033;BME280;71595;52.180;4.512;2023-10-19T11:35:18;99163.91;;;16.42;86.17
82033;BME280;71595;52.180;4.512;2023-10-19T11:37:51;99160.25;;;16.49;85.46
82033;BME280;71595;52.180;4.512;2023-10-19T11:40:19;99151.63;;;16.40;85.47
82033;BME280;71595;52.180;4.512;2023-10-19T11:42:45;99149.63;;;16.40;85.73
82033;BME280;71595;52.180;4.512;2023-10-19T11:45:10;99156.44;;;16.35;85.83
82033;BME280;71595;52.180;4.512;2023-10-19T11:47:37;99151.72;;;16.32;85.44
82033;BME280;71595;52.180;4.512;2023-10-19T11:50:04;99150.16;;;16.31;85.52
82033;BME280;71595;52.180;4.512;2023-10-19T11:52:29;99142.63;;;16.28;85.51
82033;BME280;71595;52.180;4.512;2023-10-19T11:54:56;99143.84;;;16.27;85.55
82033;BME280;71595;52.180;4.512;2023-10-19T11:57:21;99133.53;;;16.24;85.26
82033;BME280;71595;52.180;4.512;2023-10-19T11:59:47;99145.88;;;16.23;85.33
82033;BME280;71595;52.180;4.512;2023-10-19T12:02:18;99132.00;;;16.20;84.96
82033;BME280;71595;52.180;4.512;2023-10-19T12:04:44;99135.22;;;16.18;85.15
82033;BME280;71595;52.180;4.512;2023-10-19T12:07:10;99143.56;;;16.18;85.07
82033;BME280;71595;52.180;4.512;2023-10-19T12:09:36;99136.06;;;16.15;85.48
82033;BME280;71595;52.180;4.512;2023-10-19T12:12:01;99141.25;;;16.13;85.50
82033;BME280;71595;52.180;4.512;2023-10-19T12:14:28;99132.16;;;16.09;85.77
82033;BME280;71595;52.180;4.512;2023-10-19T12:16:54;99130.97;;;16.10;85.94
82033;BME280;71595;52.180;4.512;2023-10-19T12:19:19;99140.94;;;16.07;86.07
82033;BME280;71595;52.180;4.512;2023-10-19T12:21:45;99138.56;;;16.06;86.01
82033;BME280;71595;52.180;4.512;2023-10-19T12:24:10;99134.59;;;16.03;86.37
82033;BME280;71595;52.180;4.512;2023-10-19T12:26:36;99129.88;;;16.00;86.29
82033;BME280;71595;52.180;4.512;2023-10-19T12:29:01;99133.06;;;15.98;86.39
82033;BME280;71595;52.180;4.512;2023-10-19T12:31:30;99126.38;;;15.96;86.32
82033;BME280;71595;52.180;4.512;2023-10-19T12:33:55;99121.63;;;15.93;86.55
82033;BME280;71595;52.180;4.512;2023-10-19T12:36:21;99123.25;;;15.90;86.61
82033;BME280;71595;52.180;4.512;2023-10-19T12:38:52;99117.31;;;15.88;86.77
82033;BME280;71595;52.180;4.512;2023-10-19T12:41:21;99108.56;;;15.86;87.04
82033;BME280;71595;52.180;4.512;2023-10-19T12:43:47;99107.84;;;15.82;87.26
82033;BME280;71595;52.180;4.512;2023-10-19T12:46:19;99103.91;;;15.79;87.21
82033;BME280;71595;52.180;4.512;2023-10-19T12:48:45;99108.31;;;15.77;87.76
82033;BME280;71595;52.180;4.512;2023-10-19T12:51:13;99105.94;;;15.75;87.89
82033;BME280;71595;52.180;4.512;2023-10-19T12:53:39;99095.22;;;15.74;88.23
82033;BME280;71595;52.180;4.512;2023-10-19T12:56:05;99094.41;;;15.73;88.28
82033;BME280;71595;52.180;4.512;2023-10-19T12:58:32;99089.69;;;15.70;88.17
82033;BME280;71595;52.180;4.512;2023-10-19T13:00:58;99092.88;;;15.69;88.54
82033;BME280;71595;52.180;4.512;2023-10-19T13:03:24;99092.94;;;15.65;88.69
82033;BME280;71595;52.180;4.512;2023-10-19T13:05:52;99096.91;;;15.64;88.75
82033;BME280;71595;52.180;4.512;2023-10-19T13:08:18;99101.69;;;15.63;89.08
82033;BME280;71595;52.180;4.512;2023-10-19T13:10:46;99102.47;;;15.64;89.17
82033;BME280;71595;52.180;4.512;2023-10-19T13:13:13;99092.16;;;15.64;89.21
82033;BME280;71595;52.180;4.512;2023-10-19T13:15:44;99093.72;;;15.66;89.13
82033;BME280;71595;52.180;4.512;2023-10-19T13:18:11;99085.00;;;15.63;89.26
82033;BME280;71595;52.180;4.512;2023-10-19T13:20:39;99092.94;;;15.65;89.19
82033;BME280;71595;52.180;4.512;2023-10-19T13:23:09;99101.69;;;15.63;89.32
82033;BME280;71595;52.180;4.512;2023-10-19T13:25:40;99098.91;;;15.63;89.30
82033;BME280;71595;52.180;4.512;2023-10-19T13:28:11;99096.91;;;15.64;89.24
82033;BME280;71595;52.180;4.512;2023-10-19T13:33:05;99096.13;;;15.63;89.04